Briefing drone pour Jussac

Rechercher une autre localisation

Conditions de vol :


Nous sommes le : Lundi 28 septembre 2020
Il est 18:19 UTC (20:19 LT)

Lever de soleil : 05:18 UTC (07:18 LT)
Coucher de soleil : 18:03 UTC (20:03 LT)

Météo

L'essentiel des conditions de vol

VIGILANCE MÉTÉO FRANCE - Cantal (15)
Pas de vigilances particulieres
METAR de LFLW
LFLW 281800Z AUTO VRB02KT CAVOK 09/06 Q1019

Date d'émission: 28/09/2020
Heure d'émission: 18:00 UTC
Vent: Variable 2 KT (4 km/h)
Visibilité horizontale: > 10 km
Plafond : Plafond et visibilité OK (CAVOK)
Température: 9 °C
Point de rosée: 6 °C
Humidité: 81%
Pression (QNH): 1019 hPa
Prévision 24h pour Aurillac (5 km)
Vent : 277° pour 1 KT (5 km/h)
Temperature Maxi: 17 °C
Temperature Min: 17 °C
Humidité : 41%
Condition : Couvert



Warning: count(): Parameter must be an array or an object that implements Countable in /homepages/6/d509196549/htdocs/droneoxygene/briefing.php on line 743
WEBCAM POUR JUSSAC

Réglementation

Voler en sécurité

CARTES AERONAUTIQUE 1/500.000
CARTES VAC (LFLW)
SUP AIP




Chargement des AIP...
NOTAM (JUSSAC + Terrain à proximité / FIR )




Chargement des NOTAMS...
CONTACT PREFECTURE 15


Avertissement : Les données mises à disposition sont indicatives. Oxygène Drone ne pourra être tenu responsable de dégâts causés aux biens et aux personnes.